Terminal Aerodrome Forecast
Issued by NWS Twin Cities, MN

Home | Current Version | Previous Version | Text Only | Print | Product List | Glossary On
Versions: 1 2 3 4 5 6 7 8 9 10 11 12 13
432
FTUS43 KMPX 250520
TAFSTC
TAF
KSTC 250520Z 2506/2606 17008KT P6SM BKN060 BKN110
     FM251100 32008KT 4SM BR SCT008 OVC015
     FM251500 35007KT P6SM OVC015
     FM251700 36006KT P6SM OVC020
     FM252000 01008KT 5SM -SHRA BR OVC015
     FM260000 01012G20KT 1 1/2SM -RA BR OVC008=

USA.gov is the U.S. government's official web portal to all federal, state and local government web resources and services.